Time;durP1;ratioP1;P1;durP2;ratioP2;P2;SDS_P1;SDS_P2;PMS_P1;PMS_P2;Temp;Humidity;BMP_temperature;BMP_pressure;BME280_temperature;BME280_humidity;BME280_pressure;Samples;Min_cycle;Max_cycle;Signal;HPM_P1;HPM_P2
2021/01/13 00:00:27;;;;;;;8.18;5.37;;;;;;;-1.61;86.42;95402.44;1764634;81;21115;-87
2021/01/13 00:02:55;;;;;;;7.57;4.33;;;;;;;-1.65;86.54;95403.94;1699177;83;21156;-88
2021/01/13 00:05:22;;;;;;;6.55;3.58;;;;;;;-1.68;86.63;95405.19;1748530;81;21065;-88
2021/01/13 00:07:50;;;;;;;11.38;6.12;;;;;;;-1.67;86.83;95402.08;1748422;81;21113;-87
2021/01/13 00:10:20;;;;;;;8.83;5.80;;;;;;;-1.73;86.71;95407.67;1748409;81;21128;-88
2021/01/13 00:12:47;;;;;;;4.70;2.85;;;;;;;-1.79;86.92;95404.70;1748442;81;21074;-88
2021/01/13 00:15:15;;;;;;;8.38;5.25;;;;;;;-1.78;87.46;95408.88;1748489;81;21112;-88
2021/01/13 00:17:50;;;;;;;6.25;3.55;;;;;;;-1.75;87.45;95404.52;1734210;81;21489;-88
2021/01/13 00:20:18;;;;;;;6.20;3.83;;;;;;;-1.77;87.33;95411.75;1748385;81;21153;-88
2021/01/13 00:22:48;;;;;;;8.68;4.47;;;;;;;-1.82;87.44;95413.75;1748413;81;21129;-88
2021/01/13 00:25:17;;;;;;;8.70;5.10;;;;;;;-1.84;87.54;95414.97;1748447;81;21113;-88
2021/01/13 00:27:46;;;;;;;6.87;3.65;;;;;;;-1.84;87.61;95418.88;1748415;81;21081;-88
2021/01/13 00:30:15;;;;;;;10.30;5.30;;;;;;;-1.84;87.88;95433.16;1748396;81;21472;-89
2021/01/13 00:32:44;;;;;;;10.35;5.72;;;;;;;-1.85;87.86;95429.77;1748426;81;21465;-89
2021/01/13 00:35:15;;;;;;;10.03;4.80;;;;;;;-1.86;87.97;95429.48;1748412;81;21511;-88
2021/01/13 00:37:43;;;;;;;10.48;5.08;;;;;;;-1.85;88.14;95424.58;1748436;81;21114;-88
2021/01/13 00:40:12;;;;;;;11.45;5.85;;;;;;;-1.84;88.25;95433.16;1748388;81;21124;-88
2021/01/13 00:42:47;;;;;;;8.35;4.28;;;;;;;-1.89;88.39;95431.25;1748552;81;21515;-88
2021/01/13 00:45:18;;;;;;;8.63;5.00;;;;;;;-1.91;88.58;95438.48;1748138;81;21073;-88
2021/01/13 00:47:50;;;;;;;9.53;5.22;;;;;;;-1.92;88.54;95436.91;1747271;81;21066;-88
2021/01/13 00:50:18;;;;;;;8.98;6.05;;;;;;;-1.94;88.63;95437.66;1748413;81;21104;-88
2021/01/13 00:52:49;;;;;;;10.15;6.03;;;;;;;-1.94;88.58;95445.44;1748444;81;21105;-88
2021/01/13 00:55:15;;;;;;;7.92;4.37;;;;;;;-1.95;88.59;95447.77;1748429;81;21124;-88
2021/01/13 00:57:49;;;;;;;10.32;4.83;;;;;;;-1.94;89.00;95446.74;1748434;81;21100;-88
2021/01/13 01:00:18;;;;;;;10.72;5.97;;;;;;;-1.92;88.76;95446.00;1748373;81;21173;-88
2021/01/13 01:02:45;;;;;;;9.70;6.03;;;;;;;-1.89;88.51;95462.94;1747368;81;21468;-88
2021/01/13 01:05:13;;;;;;;9.43;5.67;;;;;;;-1.85;88.31;95460.94;1754093;81;21451;-88
2021/01/13 01:07:42;;;;;;;8.43;5.25;;;;;;;-1.80;88.35;95458.47;1758029;81;21127;-89
2021/01/13 01:10:15;;;;;;;7.90;4.97;;;;;;;-1.75;88.26;95471.27;1747237;81;21119;-88
2021/01/13 01:12:42;;;;;;;11.12;6.47;;;;;;;-1.72;88.39;95478.09;1746835;81;21550;-88
2021/01/13 01:15:11;;;;;;;8.78;5.40;;;;;;;-1.68;88.60;95479.75;1718995;83;21158;-88
2021/01/13 01:17:37;;;;;;;9.30;4.83;;;;;;;-1.69;88.78;95477.66;1718854;83;21203;-88
2021/01/13 01:20:07;;;;;;;8.90;5.20;;;;;;;-1.69;88.94;95480.73;1719068;83;21147;-88
2021/01/13 01:22:33;;;;;;;10.28;5.72;;;;;;;-1.70;88.96;95477.86;1718969;83;21103;-88
2021/01/13 01:25:00;;;;;;;10.48;3.95;;;;;;;-1.68;89.01;95480.53;1698947;83;21111;-88
2021/01/13 01:27:27;;;;;;;7.95;4.87;;;;;;;-1.66;89.17;95478.49;1718932;83;21506;-88
2021/01/13 01:29:54;;;;;;;9.10;5.12;;;;;;;-1.63;89.09;95482.44;1721522;83;21252;-88
2021/01/13 01:32:21;;;;;;;10.28;5.33;;;;;;;-1.61;88.91;95494.69;1705122;83;21162;-88
2021/01/13 01:34:48;;;;;;;10.40;5.33;;;;;;;-1.62;88.82;95499.61;1718869;83;21561;-87
2021/01/13 01:37:15;;;;;;;6.53;3.25;;;;;;;-1.59;88.70;95503.83;1725765;83;21139;-88
2021/01/13 01:39:42;;;;;;;10.70;4.95;;;;;;;-1.56;88.82;95501.27;1759762;81;21099;-88
2021/01/13 01:42:15;;;;;;;4.05;2.40;;;;;;;-1.52;88.61;95498.02;1757757;81;21122;-88
2021/01/13 01:44:42;;;;;;;6.62;3.60;;;;;;;-1.49;88.72;95492.86;1757280;81;21145;-88
2021/01/13 01:47:11;;;;;;;8.23;4.25;;;;;;;-1.47;88.68;95501.21;1745119;81;21139;-87
2021/01/13 01:49:41;;;;;;;5.62;3.17;;;;;;;-1.40;88.66;95513.59;1747035;81;21142;-88
2021/01/13 01:52:17;;;;;;;7.08;4.37;;;;;;;-1.35;88.52;95510.29;1747179;81;21131;-88
2021/01/13 01:54:52;;;;;;;4.28;2.40;;;;;;;-1.28;88.29;95518.22;1727613;83;21126;-88
2021/01/13 01:57:23;;;;;;;6.90;3.77;;;;;;;-1.25;88.27;95505.30;1718562;83;21130;-88
2021/01/13 02:00:03;;;;;;;4.55;2.50;;;;;;;-1.21;88.11;95520.20;1718885;83;21138;-88
2021/01/13 02:02:45;;;;;;;4.62;3.10;;;;;;;-1.18;87.84;95507.75;1719237;83;21134;-88
2021/01/13 02:05:16;;;;;;;4.67;2.65;;;;;;;-1.13;87.61;95522.14;1746785;81;21100;-87
2021/01/13 02:07:44;;;;;;;4.10;2.52;;;;;;;-1.11;86.97;95512.31;1748502;81;21505;-87
2021/01/13 02:10:15;;;;;;;4.25;2.17;;;;;;;-1.08;86.37;95513.15;1747946;81;21108;-88
2021/01/13 02:12:47;;;;;;;2.75;1.60;;;;;;;-1.00;85.25;95520.56;1748505;81;21058;-88
2021/01/13 02:15:16;;;;;;;4.25;1.90;;;;;;;-0.93;84.03;95504.33;1747428;81;21121;-87
2021/01/13 02:17:48;;;;;;;3.60;2.20;;;;;;;-0.92;83.35;95497.59;1748173;81;21120;-88
2021/01/13 02:20:17;;;;;;;5.00;2.90;;;;;;;-0.91;82.96;95488.75;1748124;81;21090;-87
2021/01/13 02:23:01;;;;;;;3.27;2.22;;;;;;;-0.92;82.53;95529.31;1748492;81;21070;-87
2021/01/13 02:25:42;;;;;;;3.35;2.42;;;;;;;-0.93;82.06;95514.22;1748373;81;21112;-87
2021/01/13 02:28:14;;;;;;;4.40;2.33;;;;;;;-0.92;81.70;95520.21;1744371;81;21105;-87
2021/01/13 02:31:11;;;;;;;2.30;1.77;;;;;;;-0.92;81.27;95517.61;1748328;81;21097;-87
2021/01/13 02:34:00;;;;;;;3.85;2.40;;;;;;;-0.93;80.50;95522.02;1748380;81;21142;-88
2021/01/13 02:37:04;;;;;;;3.20;2.20;;;;;;;-0.90;80.34;95515.56;1748393;81;21098;-87
2021/01/13 02:39:35;;;;;;;2.65;1.90;;;;;;;-0.92;79.99;95517.09;1748364;81;21109;-87
2021/01/13 02:42:02;;;;;;;2.42;2.17;;;;;;;-0.92;79.71;95521.00;1748343;81;21478;-88
2021/01/13 02:44:31;;;;;;;3.40;2.22;;;;;;;-0.92;79.85;95530.62;1748329;81;21105;-88
2021/01/13 02:47:08;;;;;;;2.15;1.67;;;;;;;-0.93;79.71;95545.95;1755083;81;21163;-88
2021/01/13 02:49:43;;;;;;;4.60;2.27;;;;;;;-0.95;79.71;95534.48;1728139;81;21096;-88
2021/01/13 02:52:21;;;;;;;6.37;3.10;;;;;;;-0.95;79.49;95544.09;1722557;82;21160;-88
2021/01/13 02:54:56;;;;;;;4.17;2.33;;;;;;;-0.95;79.53;95531.09;1753643;81;21155;-87
2021/01/13 02:57:29;;;;;;;5.78;2.98;;;;;;;-0.96;79.60;95541.21;1748040;82;21239;-88
2021/01/13 02:59:58;;;;;;;4.72;2.47;;;;;;;-0.97;79.82;95556.55;1747226;82;21114;-89
2021/01/13 03:02:37;;;;;;;5.50;2.70;;;;;;;-0.96;79.43;95543.30;1748886;82;21251;-88
2021/01/13 03:05:07;;;;;;;4.15;2.33;;;;;;;-0.97;79.64;95557.84;1748921;82;21081;-88
2021/01/13 03:07:39;;;;;;;3.30;2.58;;;;;;;-0.98;79.77;95558.87;1748902;82;21135;-87
2021/01/13 03:10:22;;;;;;;5.03;2.60;;;;;;;-0.97;80.00;95560.45;1749081;81;21483;-88
2021/01/13 03:12:49;;;;;;;7.83;4.30;;;;;;;-0.98;80.11;95557.06;1749071;82;21129;-88
2021/01/13 03:15:18;;;;;;;4.12;2.60;;;;;;;-0.99;80.18;95565.06;1749036;82;21133;-88
2021/01/13 03:18:09;;;;;;;7.53;3.08;;;;;;;-1.00;80.11;95551.78;1724089;82;21109;-88
2021/01/13 03:21:04;;;;;;;6.40;3.33;;;;;;;-1.00;80.03;95559.08;1749172;82;21168;-87
2021/01/13 03:23:48;;;;;;;7.10;3.90;;;;;;;-1.00;79.93;95555.69;1749053;82;21130;-88
2021/01/13 03:26:25;;;;;;;5.05;3.27;;;;;;;-0.98;79.75;95560.95;1748992;82;21104;-88
2021/01/13 03:28:55;;;;;;;8.90;4.65;;;;;;;-0.97;79.77;95571.64;1719333;83;21464;-88
2021/01/13 03:31:26;;;;;;;4.30;3.33;;;;;;;-0.96;79.71;95568.53;1719488;83;21444;-87
2021/01/13 03:34:30;;;;;;;6.03;3.42;;;;;;;-0.95;79.44;95574.80;1718826;83;21084;-88
2021/01/13 03:37:19;;;;;;;6.37;3.47;;;;;;;-0.92;78.81;95550.91;1719264;83;21108;-88
2021/01/13 03:39:47;;;;;;;10.03;4.42;;;;;;;-0.91;78.92;95568.10;1718999;83;21077;-88
2021/01/13 03:42:17;;;;;;;6.65;3.95;;;;;;;-0.92;78.99;95574.84;1719308;83;21080;-88
2021/01/13 03:44:47;;;;;;;5.28;2.85;;;;;;;-0.93;78.99;95571.96;1719311;82;21096;-89
2021/01/13 03:47:39;;;;;;;5.70;3.20;;;;;;;-0.89;78.21;95536.65;1717284;82;21292;-88
2021/01/13 03:50:25;;;;;;;3.35;2.37;;;;;;;-0.86;78.14;95558.29;1726529;82;21122;-88
2021/01/13 03:53:00;;;;;;;4.25;2.45;;;;;;;-0.86;78.29;95568.70;1731420;82;21487;-89
2021/01/13 03:55:32;;;;;;;2.75;2.37;;;;;;;-0.86;78.18;95546.59;1716907;83;21128;-88
2021/01/13 03:58:10;;;;;;;6.37;4.05;;;;;;;-0.81;78.25;95561.52;1719245;83;21128;-88
2021/01/13 04:01:18;;;;;;;8.10;4.50;;;;;;;-0.83;78.53;95550.56;1719192;83;21523;-88
2021/01/13 04:03:56;;;;;;;5.62;2.62;;;;;;;-0.85;78.74;95555.18;1719235;83;21112;-88
2021/01/13 04:06:24;;;;;;;3.52;2.40;;;;;;;-0.86;79.10;95550.48;1719258;82;21152;-88
2021/01/13 04:08:51;;;;;;;5.72;3.50;;;;;;;-0.84;79.48;95561.99;1719297;83;21171;-88
2021/01/13 04:11:22;;;;;;;8.20;3.75;;;;;;;-0.85;79.74;95562.98;1719238;83;21126;-88
2021/01/13 04:13:54;;;;;;;5.15;3.30;;;;;;;-0.86;80.01;95545.80;1719322;83;21115;-88
2021/01/13 04:16:24;;;;;;;5.87;2.47;;;;;;;-0.87;80.31;95554.11;1719323;82;21120;-88
2021/01/13 04:18:53;;;;;;;8.90;3.45;;;;;;;-0.86;80.62;95562.19;1719544;83;21509;-88
2021/01/13 04:21:22;;;;;;;3.33;1.87;;;;;;;-0.86;80.66;95564.80;1719244;83;21151;-88
2021/01/13 04:23:50;;;;;;;6.08;3.83;;;;;;;-0.87;81.32;95559.83;1719280;83;21548;-88
2021/01/13 04:26:17;;;;;;;8.03;3.52;;;;;;;-0.93;82.10;95572.75;1719313;83;21084;-88
2021/01/13 04:28:47;;;;;;;7.05;4.47;;;;;;;-0.97;82.16;95564.34;1719270;83;21476;-88
2021/01/13 04:31:15;;;;;;;6.63;3.53;;;;;;;-0.99;82.16;95570.27;1765681;81;21114;-88
2021/01/13 04:33:42;;;;;;;7.25;4.15;;;;;;;-1.00;82.20;95568.69;1765406;81;21142;-88
2021/01/13 04:36:12;;;;;;;5.60;3.02;;;;;;;-0.97;82.10;95577.35;1765498;81;21134;-88
2021/01/13 04:38:40;;;;;;;3.55;2.27;;;;;;;-0.96;82.08;95563.33;1711744;84;21141;-88
2021/01/13 04:41:15;;;;;;;3.35;1.95;;;;;;;-0.94;81.79;95567.78;1765267;81;21170;-87
2021/01/13 04:44:03;;;;;;;7.53;3.83;;;;;;;-0.84;81.21;95564.08;1877932;76;22628;-87
2021/01/13 04:46:39;;;;;;;8.18;2.95;;;;;;;-0.87;80.97;95567.13;1816074;79;21108;-86
2021/01/13 04:49:19;;;;;;;2.95;2.30;;;;;;;-0.85;80.66;95561.17;1827535;77;21115;-88
2021/01/13 04:51:47;;;;;;;5.28;2.70;;;;;;;-0.84;80.12;95553.67;1801808;80;21423;-87
2021/01/13 04:54:17;;;;;;;7.03;3.83;;;;;;;-0.85;79.88;95554.66;1768627;81;21565;-88
2021/01/13 04:56:59;;;;;;;5.37;3.05;;;;;;;-0.87;79.85;95556.72;1793259;80;21080;-87
2021/01/13 05:00:06;;;;;;;6.30;2.98;;;;;;;-0.85;79.74;95557.78;1777250;80;21262;-87
2021/01/13 05:02:55;;;;;;;6.85;3.33;;;;;;;-0.87;79.78;95561.92;1793058;80;21514;-87
2021/01/13 05:05:24;;;;;;;7.00;2.62;;;;;;;-0.87;79.84;95580.13;1788436;80;21503;-88
2021/01/13 05:08:00;;;;;;;5.67;2.83;;;;;;;-0.88;80.40;95566.05;1793066;79;21158;-88
2021/01/13 05:10:30;;;;;;;3.65;2.05;;;;;;;-0.92;81.10;95578.74;1788158;80;21107;-88
2021/01/13 05:12:59;;;;;;;6.55;3.15;;;;;;;-1.00;81.80;95577.28;1793127;79;21151;-88
2021/01/13 05:15:32;;;;;;;2.58;1.90;;;;;;;-1.03;82.01;95577.75;1793134;79;21115;-88
2021/01/13 05:18:04;;;;;;;5.30;3.05;;;;;;;-1.03;82.38;95588.15;1792647;80;21100;-88
2021/01/13 05:20:36;;;;;;;7.55;4.03;;;;;;;-1.10;83.61;95586.20;1793091;80;21099;-89
2021/01/13 05:23:07;;;;;;;5.42;3.45;;;;;;;-1.22;84.63;95587.52;1793042;79;21155;-88
2021/01/13 05:25:43;;;;;;;;;;;;;;;-1.25;85.01;95592.39;1795731;80;21139;-88
2021/01/13 05:28:23;;;;;;;3.50;2.67;;;;;;;-1.26;85.09;95599.41;1784997;80;20111;-88
2021/01/13 05:30:58;;;;;;;6.08;3.12;;;;;;;-1.20;84.14;95593.79;1784190;80;21080;-88
2021/01/13 05:33:30;;;;;;;3.35;1.87;;;;;;;-1.15;84.07;95598.30;1789872;80;21119;-88
2021/01/13 05:36:01;;;;;;;3.25;2.60;;;;;;;-1.15;83.97;95606.88;1793176;80;21084;-88
2021/01/13 05:38:52;;;;;;;3.92;2.75;;;;;;;-1.18;84.11;95609.95;1793017;80;21147;-88
2021/01/13 05:41:19;;;;;;;4.30;2.60;;;;;;;-1.22;84.11;95612.73;1793221;80;21108;-87
2021/01/13 05:43:49;;;;;;;6.25;3.83;;;;;;;-1.24;84.00;95612.97;1792420;80;21100;-87
2021/01/13 05:46:20;;;;;;;5.72;3.02;;;;;;;-1.26;83.50;95594.72;1781569;80;21112;-88
2021/01/13 05:48:49;;;;;;;;;;;;;;;-1.27;82.91;95634.70;1786166;80;21100;-87
2021/01/13 05:51:28;;;;;;;3.55;2.15;;;;;;;-1.31;82.35;95635.68;1793065;79;20111;-87
2021/01/13 05:53:57;;;;;;;4.50;2.52;;;;;;;-1.31;82.24;95638.79;1793013;79;21099;-87
2021/01/13 05:56:25;;;;;;;3.50;2.05;;;;;;;-1.34;82.39;95645.23;1792538;80;21494;-87
2021/01/13 05:59:05;;;;;;;5.97;3.00;;;;;;;-1.36;81.97;95642.08;1792668;79;21160;-87
2021/01/13 06:02:02;;;;;;;4.67;2.35;;;;;;;-1.38;82.00;95651.91;1792593;80;21502;-88
2021/01/13 06:04:30;;;;;;;4.78;2.35;;;;;;;-1.42;81.69;95654.66;1697122;84;21498;-87
2021/01/13 06:07:06;;;;;;;4.00;2.25;;;;;;;-1.50;81.26;95669.31;1770782;80;21112;-87
2021/01/13 06:09:41;;;;;;;7.30;3.35;;;;;;;-1.54;81.51;95673.39;1792409;80;21314;-88
2021/01/13 06:12:16;;;;;;;7.10;3.37;;;;;;;-1.60;81.82;95680.25;1792475;80;21136;-87
2021/01/13 06:14:44;;;;;;;6.12;3.05;;;;;;;-1.62;81.86;95682.29;1792447;79;21091;-87
2021/01/13 06:17:18;;;;;;;4.45;2.15;;;;;;;-1.66;82.04;95675.97;1792126;80;21123;-87
2021/01/13 06:19:56;;;;;;;3.17;2.22;;;;;;;-1.71;81.94;95681.02;1790899;80;21136;-88
2021/01/13 06:22:33;;;;;;;2.80;2.05;;;;;;;-1.75;81.98;95684.30;1782898;79;21104;-87
2021/01/13 06:25:05;;;;;;;7.87;2.05;;;;;;;-1.83;82.52;95678.42;1790885;80;21261;-87
2021/01/13 06:27:59;;;;;;;4.05;2.00;;;;;;;-1.96;84.62;95685.63;1792652;80;21111;-86
2021/01/13 06:30:32;;;;;;;2.77;1.85;;;;;;;-2.09;84.51;95694.39;1791457;80;21088;-87
2021/01/13 06:33:10;;;;;;;3.17;1.90;;;;;;;-2.16;83.55;95724.32;1792490;79;21226;-88
2021/01/13 06:36:06;;;;;;;4.53;2.12;;;;;;;-2.16;82.17;95723.02;1789426;80;21147;-88
2021/01/13 06:38:58;;;;;;;2.45;1.47;;;;;;;-2.16;81.97;95727.42;1792418;79;21124;-87
2021/01/13 06:41:28;;;;;;;2.72;1.75;;;;;;;-2.20;82.19;95715.39;1792443;80;21284;-88
2021/01/13 06:44:06;;;;;;;6.45;2.20;;;;;;;-2.22;81.60;95725.72;1792529;80;21111;-87
2021/01/13 06:46:35;;;;;;;3.52;2.02;;;;;;;-2.21;81.01;95742.88;1792059;80;21245;-87
2021/01/13 06:49:21;;;;;;;3.02;2.20;;;;;;;-2.20;80.77;95754.84;1792317;79;21479;-88
2021/01/13 06:51:51;;;;;;;1.87;1.20;;;;;;;-2.19;80.27;95757.73;1792424;79;21605;-88
2021/01/13 06:54:21;;;;;;;4.97;1.50;;;;;;;-2.20;79.46;95762.63;1792523;79;21131;-87
2021/01/13 06:56:56;;;;;;;2.20;1.15;;;;;;;-2.18;78.83;95803.45;1783560;80;21139;-88
2021/01/13 06:59:25;;;;;;;1.92;1.37;;;;;;;-2.21;78.08;95764.44;1789775;80;21502;-87
2021/01/13 07:01:59;;;;;;;2.95;1.20;;;;;;;-2.19;77.86;95781.09;1792576;80;21143;-88
2021/01/13 07:04:28;;;;;;;3.77;2.05;;;;;;;-2.22;77.02;95779.73;1792407;80;21249;-88
2021/01/13 07:07:03;;;;;;;2.72;1.52;;;;;;;-2.21;76.83;95767.03;1792556;79;21590;-88
2021/01/13 07:09:41;;;;;;;1.62;1.00;;;;;;;-2.21;76.59;95763.64;1792327;80;21234;-89
2021/01/13 07:12:22;;;;;;;1.72;0.82;;;;;;;-2.21;76.25;95774.03;1792444;80;21119;-87
2021/01/13 07:14:56;;;;;;;2.65;1.15;;;;;;;-2.21;75.97;95788.31;1792422;80;21448;-88
2021/01/13 07:17:26;;;;;;;3.40;1.35;;;;;;;-2.18;75.84;95783.97;1791974;80;21136;-89
2021/01/13 07:19:56;;;;;;;3.30;1.20;;;;;;;-2.14;75.75;95772.92;1792441;80;21265;-88
2021/01/13 07:22:25;;;;;;;;;;;;;;;-2.12;75.71;95787.77;1795050;79;21104;-88
2021/01/13 07:24:56;;;;;;;4.53;1.82;;;;;;;-2.10;75.08;95786.28;1792558;80;20242;-88
2021/01/13 07:27:23;;;;;;;5.53;1.57;;;;;;;-2.07;75.44;95793.63;1792657;79;21125;-87
2021/01/13 07:29:51;;;;;;;4.90;1.57;;;;;;;-2.08;75.72;95751.80;1792344;79;21267;-87
2021/01/13 07:32:30;;;;;;;2.33;1.07;;;;;;;-2.12;76.13;95734.55;1792385;80;21098;-87
2021/01/13 07:35:04;;;;;;;2.05;1.27;;;;;;;-2.18;77.80;95806.83;1792425;79;21124;-88
2021/01/13 07:37:39;;;;;;;2.42;1.47;;;;;;;-2.21;78.24;95803.89;1792355;80;21068;-88
2021/01/13 07:40:34;;;;;;;2.67;1.82;;;;;;;-2.21;78.11;95803.89;1790874;80;21300;-87
2021/01/13 07:43:12;;;;;;;2.67;1.20;;;;;;;-2.20;78.03;95818.45;1795205;79;21167;-88
2021/01/13 07:45:47;;;;;;;3.70;1.72;;;;;;;-2.17;77.90;95816.71;1765101;81;21084;-88
2021/01/13 07:48:34;;;;;;;2.08;1.25;;;;;;;-2.14;77.65;95807.19;1803622;79;21118;-88
2021/01/13 07:51:10;;;;;;;4.05;1.80;;;;;;;-2.11;77.26;95824.95;1749302;79;21115;-88
2021/01/13 07:53:39;;;;;;;4.25;1.72;;;;;;;-2.09;77.18;95813.83;1804050;79;21115;-88
2021/01/13 07:56:10;;;;;;;5.60;1.80;;;;;;;-2.06;76.87;95813.39;1764410;80;21153;-88
2021/01/13 07:58:37;;;;;;;2.10;1.25;;;;;;;-2.06;76.44;95833.38;1788686;79;21627;-88
2021/01/13 08:01:39;;;;;;;1.52;0.80;;;;;;;-2.10;77.03;95819.53;1788627;79;21108;-87
2021/01/13 08:04:43;;;;;;;3.42;1.30;;;;;;;-2.13;78.11;95830.33;1748501;81;21610;-88
2021/01/13 08:07:16;;;;;;;6.70;3.50;;;;;;;-2.14;78.83;95825.36;1790282;79;21503;-87
2021/01/13 08:09:50;;;;;;;5.95;3.40;;;;;;;-2.06;78.85;95846.36;1804046;79;21210;-87
2021/01/13 08:12:38;;;;;;;4.08;2.02;;;;;;;-1.98;78.34;95832.55;1752777;81;21117;-88
2021/01/13 08:15:38;;;;;;;3.65;2.15;;;;;;;-1.95;76.94;95831.34;1773283;79;21495;-88
2021/01/13 08:18:23;;;;;;;7.05;2.70;;;;;;;-1.93;76.50;95843.61;1804146;79;21099;-88
2021/01/13 08:21:15;;;;;;;3.58;1.67;;;;;;;-1.92;75.93;95839.48;1807708;79;21087;-88
2021/01/13 08:23:48;;;;;;;2.10;1.25;;;;;;;-1.92;75.43;95834.80;1803800;79;21261;-88
2021/01/13 08:26:17;;;;;;;6.30;2.15;;;;;;;-1.93;74.89;95827.52;1770933;81;21229;-88
2021/01/13 08:28:50;;;;;;;3.33;2.12;;;;;;;-1.88;74.41;95828.94;1803901;79;21323;-88
2021/01/13 08:31:28;;;;;;;5.62;2.77;;;;;;;-1.84;74.72;95843.07;1772498;81;21477;-87
2021/01/13 08:34:09;;;;;;;2.62;1.92;;;;;;;-1.82;74.39;95830.68;1804224;79;21118;-88
2021/01/13 08:36:55;;;;;;;3.70;1.55;;;;;;;-1.81;74.43;95847.85;1771005;80;21456;-86
2021/01/13 08:39:32;;;;;;;16.62;6.70;;;;;;;-1.81;74.77;95847.85;1803530;79;21134;-87
2021/01/13 08:42:29;;;;;;;41.40;24.05;;;;;;;-1.80;74.72;95848.14;1772589;79;21122;-89
2021/01/13 08:45:00;;;;;;;10.58;5.25;;;;;;;-1.75;74.87;95840.98;1803706;79;21637;-87
2021/01/13 08:47:29;;;;;;;7.75;3.08;;;;;;;-1.67;74.73;95857.58;1804121;79;21073;-87
2021/01/13 08:50:15;;;;;;;6.10;2.33;;;;;;;-1.64;74.51;95846.73;1804198;79;21107;-87
2021/01/13 08:52:51;;;;;;;5.47;2.47;;;;;;;-1.60;74.29;95841.88;1797189;79;21118;-87
2021/01/13 08:55:20;;;;;;;5.08;3.15;;;;;;;-1.60;73.41;95836.17;1790040;79;21237;-88
2021/01/13 08:57:52;;;;;;;7.15;3.47;;;;;;;-1.57;73.24;95824.03;1804063;79;21273;-88
2021/01/13 09:00:23;;;;;;;3.60;1.95;;;;;;;-1.48;73.71;95842.72;1804111;79;21253;-87
2021/01/13 09:03:03;;;;;;;;;;;;;;;-1.43;72.89;95832.95;1806716;79;21475;-88
2021/01/13 09:05:36;;;;;;;4.65;2.22;;;;;;;-1.44;73.00;95837.36;1804047;79;20123;-87
2021/01/13 09:08:08;;;;;;;6.10;2.30;;;;;;;-1.51;72.96;95849.67;1770799;81;21455;-88
2021/01/13 09:10:54;;;;;;;5.87;2.35;;;;;;;-1.50;73.30;95857.24;1803800;79;21119;-86
2021/01/13 09:13:33;;;;;;;7.05;2.52;;;;;;;-1.48;73.16;95851.03;1770923;81;21242;-87
2021/01/13 09:16:28;;;;;;;3.75;1.90;;;;;;;-1.45;73.12;95838.38;1803836;79;21585;-88
2021/01/13 09:19:00;;;;;;;5.00;2.37;;;;;;;-1.42;72.96;95837.13;1755645;81;21135;-87
2021/01/13 09:21:34;;;;;;;7.70;3.60;;;;;;;-1.33;72.75;95845.70;1747047;81;21557;-86
2021/01/13 09:24:02;;;;;;;7.50;3.20;;;;;;;-1.18;72.87;95852.30;1786760;80;21084;-87
2021/01/13 09:26:37;;;;;;;15.18;6.83;;;;;;;-1.13;73.15;95856.31;1786877;80;21088;-87
2021/01/13 09:29:08;;;;;;;24.18;11.88;;;;;;;-1.16;72.81;95837.27;1786820;80;21541;-87
2021/01/13 09:31:39;;;;;;;9.68;4.05;;;;;;;-1.25;73.30;95858.41;1786910;80;21103;-87
2021/01/13 09:34:09;;;;;;;5.12;2.52;;;;;;;-1.26;73.76;95850.31;1787005;80;21065;-87
2021/01/13 09:37:00;;;;;;;17.02;8.33;;;;;;;-1.25;74.43;95846.70;1795216;80;21254;-87
2021/01/13 09:39:37;;;;;;;12.13;5.00;;;;;;;-1.26;74.72;95840.43;1795319;80;21103;-88
2021/01/13 09:42:08;;;;;;;23.05;10.60;;;;;;;-1.24;75.37;95835.28;1794507;80;21140;-88
2021/01/13 09:44:39;;;;;;;12.58;4.30;;;;;;;-1.29;75.80;95849.44;1793195;80;21627;-88
2021/01/13 09:47:29;;;;;;;8.28;4.00;;;;;;;-1.33;76.44;95851.41;1792424;80;21247;-87
2021/01/13 09:49:59;;;;;;;40.12;18.75;;;;;;;-1.38;76.84;95849.48;1741432;80;21104;-87
2021/01/13 09:52:41;;;;;;;7.58;4.33;;;;;;;-1.37;77.28;95854.97;1792307;80;21131;-87
2021/01/13 09:55:12;;;;;;;7.62;3.02;;;;;;;-1.22;77.32;95854.56;1792219;80;21245;-88
2021/01/13 09:57:41;;;;;;;13.32;5.10;;;;;;;-1.13;77.79;95849.81;1792304;80;21313;-88
2021/01/13 10:00:13;;;;;;;9.98;4.30;;;;;;;-1.02;77.42;95849.05;1792308;80;21254;-88
2021/01/13 10:02:50;;;;;;;11.38;5.50;;;;;;;-0.80;76.90;95833.20;1792241;80;21528;-88
2021/01/13 10:05:21;;;;;;;14.47;7.25;;;;;;;-0.80;76.90;95833.20;1792415;80;21080;-88
2021/01/13 10:07:53;;;;;;;8.43;4.45;;;;;;;-0.62;76.47;95829.69;1779907;80;21495;-88
2021/01/13 10:10:26;;;;;;;7.80;3.60;;;;;;;-0.50;76.21;95814.07;1792281;80;21278;-88
2021/01/13 10:12:58;;;;;;;7.35;3.20;;;;;;;-0.44;75.75;95814.45;1792216;80;21242;-88
2021/01/13 10:15:28;;;;;;;8.20;3.42;;;;;;;-0.42;75.31;95813.73;1792185;80;21244;-88
2021/01/13 10:18:03;;;;;;;9.75;3.87;;;;;;;-0.46;75.03;95817.80;1792132;80;21100;-87
2021/01/13 10:20:36;;;;;;;7.95;4.12;;;;;;;-0.43;75.01;95819.94;1792212;80;21120;-88
2021/01/13 10:23:07;;;;;;;9.30;4.05;;;;;;;-0.14;75.11;95819.50;1792450;80;21494;-88
2021/01/13 10:25:35;;;;;;;6.37;3.50;;;;;;;-0.14;75.11;95819.50;1792239;80;21246;-88
2021/01/13 10:28:02;;;;;;;4.80;2.67;;;;;;;-0.02;74.60;95824.17;1792093;80;21482;-88
2021/01/13 10:30:31;;;;;;;13.70;3.85;;;;;;;-0.20;73.63;95826.94;1792148;80;21265;-88
2021/01/13 10:32:59;;;;;;;7.25;2.60;;;;;;;-0.61;73.93;95800.83;1792196;80;21124;-88
2021/01/13 10:35:40;;;;;;;6.53;3.22;;;;;;;-0.82;75.55;95806.61;1792107;80;21111;-87
2021/01/13 10:38:14;;;;;;;3.65;2.40;;;;;;;-1.05;77.02;95827.39;1792107;80;21073;-87
2021/01/13 10:40:48;;;;;;;11.57;4.53;;;;;;;-1.26;78.69;95820.42;1790429;80;21116;-88
2021/01/13 10:43:20;;;;;;;7.20;3.55;;;;;;;-1.41;79.30;95827.81;1792043;80;21614;-88
2021/01/13 10:45:59;;;;;;;10.40;3.92;;;;;;;-1.53;79.95;95829.09;1792124;80;21613;-88
2021/01/13 10:48:28;;;;;;;;;;;;;;;-1.57;80.12;95829.23;1794537;80;21168;-87
2021/01/13 10:50:59;;;;;;;9.23;3.62;;;;;;;-1.53;80.56;95830.91;1792078;80;20132;-87
2021/01/13 10:53:32;;;;;;;5.08;3.12;;;;;;;-1.55;80.66;95806.92;1791782;80;21285;-87
2021/01/13 10:56:05;;;;;;;3.80;2.12;;;;;;;-1.53;80.50;95816.61;1792100;80;21149;-87
2021/01/13 10:58:37;;;;;;;5.60;2.47;;;;;;;-1.47;80.71;95817.52;1791763;80;21289;-87
2021/01/13 11:01:05;;;;;;;7.62;3.45;;;;;;;-1.43;80.82;95808.25;1760907;81;21502;-87
2021/01/13 11:03:35;;;;;;;6.47;2.55;;;;;;;-1.34;80.81;95810.83;1760920;81;21571;-87
2021/01/13 11:06:03;;;;;;;9.00;4.00;;;;;;;-1.18;80.48;95811.99;1761015;81;21137;-87
2021/01/13 11:08:31;;;;;;;14.35;3.75;;;;;;;-0.99;79.86;95821.28;1760936;81;21142;-87
2021/01/13 11:11:07;;;;;;;6.55;3.27;;;;;;;-0.84;79.17;95813.86;1760888;81;21148;-87
2021/01/13 11:13:47;;;;;;;8.95;3.25;;;;;;;-0.80;78.54;95814.98;1760908;81;21123;-87
2021/01/13 11:16:16;;;;;;;8.63;4.00;;;;;;;-0.85;77.55;95792.73;1761073;81;21111;-88
2021/01/13 11:18:44;;;;;;;6.70;3.70;;;;;;;-0.85;77.31;95795.84;1760428;81;21518;-88
2021/01/13 11:21:11;;;;;;;7.03;3.47;;;;;;;-0.81;77.42;95789.98;1760895;81;21103;-89
2021/01/13 11:23:44;;;;;;;9.18;4.62;;;;;;;-0.84;76.29;95791.74;1760957;81;21510;-88
2021/01/13 11:26:13;;;;;;;5.83;3.00;;;;;;;-0.84;76.49;95789.14;1761007;81;21451;-88
2021/01/13 11:28:44;;;;;;;9.95;2.87;;;;;;;-0.80;75.55;95781.16;1761168;81;21514;-87
2021/01/13 11:31:13;;;;;;;9.18;4.75;;;;;;;-0.85;75.49;95775.03;1761160;81;21088;-88
2021/01/13 11:33:47;;;;;;;8.23;4.13;;;;;;;-0.88;76.05;95775.48;1733674;81;21116;-87
2021/01/13 11:36:26;;;;;;;7.78;3.67;;;;;;;-0.85;75.94;95774.52;1760988;81;21109;-87
2021/01/13 11:39:00;;;;;;;5.92;2.22;;;;;;;-0.70;76.28;95769.67;1760883;81;21135;-87
2021/01/13 11:41:45;;;;;;;8.53;3.12;;;;;;;-0.56;76.01;95778.52;1733715;81;21127;-87
2021/01/13 11:44:39;;;;;;;10.15;4.20;;;;;;;-0.48;75.56;95771.67;1754790;81;21148;-87
2021/01/13 11:47:24;;;;;;;8.80;3.87;;;;;;;-0.48;75.56;95771.67;1751550;81;21131;-87
2021/01/13 11:49:59;;;;;;;7.60;4.05;;;;;;;-0.40;75.30;95760.41;1743955;81;21192;-88
2021/01/13 11:52:33;;;;;;;8.55;3.83;;;;;;;-0.45;75.12;95769.40;1759599;81;21095;-88
2021/01/13 11:55:02;;;;;;;8.38;3.67;;;;;;;-0.45;75.05;95767.30;1751506;81;21112;-85
2021/01/13 11:57:34;;;;;;;8.58;3.45;;;;;;;-0.43;74.96;95760.05;1760908;81;21126;-86
2021/01/13 12:00:21;;;;;;;4.08;1.90;;;;;;;-0.52;74.78;95758.84;1761068;81;21499;-86
2021/01/13 12:03:01;;;;;;;5.62;2.15;;;;;;;-0.58;74.76;95738.41;1760858;81;21100;-86
2021/01/13 12:05:34;;;;;;;4.60;2.70;;;;;;;-0.58;74.87;95757.92;1760938;81;21111;-88
2021/01/13 12:08:13;;;;;;;4.67;1.57;;;;;;;-0.55;75.02;95758.00;1757210;81;21122;-88